sensor_id;sensor_type;location;lat;lon;timestamp;pressure;altitude;pressure_sealevel;temperature;humidity
53514;BME280;39768;54.148;12.174;2023-03-22T00:03:35;100843.63;;;13.84;100.00
53514;BME280;39768;54.148;12.174;2023-03-22T00:07:37;100841.97;;;13.80;100.00
53514;BME280;39768;54.148;12.174;2023-03-22T00:11:41;100836.63;;;13.44;100.00
53514;BME280;39768;54.148;12.174;2023-03-22T00:15:42;100828.78;;;13.73;100.00
53514;BME280;39768;54.148;12.174;2023-03-22T00:19:45;100830.22;;;13.87;100.00
53514;BME280;39768;54.148;12.174;2023-03-22T00:23:47;100831.72;;;13.63;100.00
53514;BME280;39768;54.148;12.174;2023-03-22T00:27:49;100835.78;;;13.42;100.00
53514;BME280;39768;54.148;12.174;2023-03-22T00:31:50;100819.38;;;13.59;100.00
53514;BME280;39768;54.148;12.174;2023-03-22T00:36:00;100829.41;;;13.49;100.00
53514;BME280;39768;54.148;12.174;2023-03-22T00:40:03;100815.56;;;13.33;100.00
53514;BME280;39768;54.148;12.174;2023-03-22T00:44:05;100811.78;;;13.42;100.00
53514;BME280;39768;54.148;12.174;2023-03-22T00:48:09;100805.66;;;13.74;100.00
53514;BME280;39768;54.148;12.174;2023-03-22T00:52:11;100804.66;;;13.78;100.00
53514;BME280;39768;54.148;12.174;2023-03-22T00:56:12;100798.66;;;13.68;100.00
53514;BME280;39768;54.148;12.174;2023-03-22T01:00:20;100799.44;;;14.07;100.00
53514;BME280;39768;54.148;12.174;2023-03-22T01:04:21;100802.22;;;14.03;100.00
53514;BME280;39768;54.148;12.174;2023-03-22T01:08:26;100783.94;;;13.88;100.00
53514;BME280;39768;54.148;12.174;2023-03-22T01:12:33;100781.59;;;13.40;100.00
53514;BME280;39768;54.148;12.174;2023-03-22T01:16:35;100778.81;;;13.46;100.00
53514;BME280;39768;54.148;12.174;2023-03-22T01:20:37;100784.22;;;13.77;100.00
53514;BME280;39768;54.148;12.174;2023-03-22T01:24:39;100775.47;;;13.72;100.00
53514;BME280;39768;54.148;12.174;2023-03-22T01:28:40;100773.78;;;13.68;100.00
53514;BME280;39768;54.148;12.174;2023-03-22T01:32:42;100769.81;;;13.12;100.00
53514;BME280;39768;54.148;12.174;2023-03-22T01:36:44;100752.91;;;13.13;100.00
53514;BME280;39768;54.148;12.174;2023-03-22T01:40:46;100756.03;;;13.33;100.00
53514;BME280;39768;54.148;12.174;2023-03-22T01:45:50;100752.34;;;13.37;100.00
53514;BME280;39768;54.148;12.174;2023-03-22T01:49:33;100749.00;;;13.29;100.00
53514;BME280;39768;54.148;12.174;2023-03-22T01:53:58;100739.88;;;13.37;100.00
53514;BME280;39768;54.148;12.174;2023-03-22T01:57:59;100736.72;;;13.57;100.00
53514;BME280;39768;54.148;12.174;2023-03-22T02:02:14;100728.88;;;13.17;100.00
53514;BME280;39768;54.148;12.174;2023-03-22T02:06:25;100730.38;;;13.27;100.00
53514;BME280;39768;54.148;12.174;2023-03-22T02:10:38;100726.69;;;13.33;100.00
53514;BME280;39768;54.148;12.174;2023-03-22T02:14:51;100723.41;;;13.22;100.00
53514;BME280;39768;54.148;12.174;2023-03-22T02:23:55;100719.25;;;13.08;100.00
53514;BME280;39768;54.148;12.174;2023-03-22T02:28:17;100713.00;;;13.10;100.00
53514;BME280;39768;54.148;12.174;2023-03-22T02:32:33;100723.09;;;12.97;100.00
53514;BME280;39768;54.148;12.174;2023-03-22T02:36:58;100715.50;;;12.80;100.00
53514;BME280;39768;54.148;12.174;2023-03-22T02:41:10;100721.66;;;12.82;100.00
53514;BME280;39768;54.148;12.174;2023-03-22T02:45:20;100716.69;;;12.67;100.00
53514;BME280;39768;54.148;12.174;2023-03-22T02:49:32;100712.09;;;12.75;100.00
53514;BME280;39768;54.148;12.174;2023-03-22T02:53:44;100703.00;;;12.84;100.00
53514;BME280;39768;54.148;12.174;2023-03-22T03:01:53;100696.47;;;12.95;100.00
53514;BME280;39768;54.148;12.174;2023-03-22T03:05:59;100692.22;;;12.88;100.00
53514;BME280;39768;54.148;12.174;2023-03-22T03:10:02;100703.97;;;12.80;100.00
53514;BME280;39768;54.148;12.174;2023-03-22T03:14:04;100690.09;;;13.02;100.00
53514;BME280;39768;54.148;12.174;2023-03-22T03:18:22;100689.31;;;12.97;100.00
53514;BME280;39768;54.148;12.174;2023-03-22T03:22:43;100687.97;;;12.80;100.00
53514;BME280;39768;54.148;12.174;2023-03-22T03:27:21;100672.94;;;12.77;100.00
53514;BME280;39768;54.148;12.174;2023-03-22T03:35:37;100686.88;;;12.51;100.00
53514;BME280;39768;54.148;12.174;2023-03-22T03:39:50;100683.16;;;12.58;100.00
53514;BME280;39768;54.148;12.174;2023-03-22T03:43:54;100683.13;;;12.60;100.00
53514;BME280;39768;54.148;12.174;2023-03-22T03:48:03;100679.59;;;12.96;100.00
53514;BME280;39768;54.148;12.174;2023-03-22T03:52:05;100679.75;;;12.90;100.00
53514;BME280;39768;54.148;12.174;2023-03-22T03:56:08;100680.75;;;12.85;100.00
53514;BME280;39768;54.148;12.174;2023-03-22T04:00:15;100680.03;;;12.40;100.00
53514;BME280;39768;54.148;12.174;2023-03-22T04:04:37;100673.53;;;12.53;100.00
53514;BME280;39768;54.148;12.174;2023-03-22T04:08:39;100663.66;;;12.93;100.00
53514;BME280;39768;54.148;12.174;2023-03-22T04:12:42;100666.13;;;13.02;100.00
53514;BME280;39768;54.148;12.174;2023-03-22T04:16:49;100661.47;;;12.75;100.00
53514;BME280;39768;54.148;12.174;2023-03-22T04:20:54;100660.34;;;12.47;100.00
53514;BME280;39768;54.148;12.174;2023-03-22T04:24:58;100647.91;;;12.84;100.00
53514;BME280;39768;54.148;12.174;2023-03-22T04:29:00;100657.03;;;12.76;100.00
53514;BME280;39768;54.148;12.174;2023-03-22T04:33:04;100643.63;;;12.77;100.00
53514;BME280;39768;54.148;12.174;2023-03-22T04:37:25;100642.91;;;13.06;100.00
53514;BME280;39768;54.148;12.174;2023-03-22T04:41:42;100635.19;;;12.95;100.00
53514;BME280;39768;54.148;12.174;2023-03-22T04:45:44;100624.84;;;13.20;100.00
53514;BME280;39768;54.148;12.174;2023-03-22T04:49:50;100625.00;;;13.13;100.00
53514;BME280;39768;54.148;12.174;2023-03-22T04:53:53;100633.44;;;12.94;100.00
53514;BME280;39768;54.148;12.174;2023-03-22T04:57:55;100628.59;;;12.76;100.00
53514;BME280;39768;54.148;12.174;2023-03-22T05:01:58;100611.88;;;13.05;100.00
53514;BME280;39768;54.148;12.174;2023-03-22T05:06:06;100597.69;;;13.04;100.00
53514;BME280;39768;54.148;12.174;2023-03-22T05:10:19;100605.19;;;12.89;100.00
53514;BME280;39768;54.148;12.174;2023-03-22T05:14:21;100614.09;;;12.88;100.00
53514;BME280;39768;54.148;12.174;2023-03-22T05:18:23;100604.91;;;12.99;100.00
53514;BME280;39768;54.148;12.174;2023-03-22T05:22:28;100600.28;;;13.06;100.00
53514;BME280;39768;54.148;12.174;2023-03-22T05:26:32;100598.94;;;13.24;100.00
53514;BME280;39768;54.148;12.174;2023-03-22T05:30:34;100597.38;;;12.81;100.00
53514;BME280;39768;54.148;12.174;2023-03-22T05:34:43;100593.13;;;13.08;100.00
53514;BME280;39768;54.148;12.174;2023-03-22T05:38:56;100597.97;;;12.92;100.00
53514;BME280;39768;54.148;12.174;2023-03-22T05:42:57;100612.19;;;12.91;100.00
53514;BME280;39768;54.148;12.174;2023-03-22T05:47:00;100614.56;;;13.03;100.00
53514;BME280;39768;54.148;12.174;2023-03-22T05:51:22;100611.28;;;12.92;100.00
53514;BME280;39768;54.148;12.174;2023-03-22T05:55:27;100604.03;;;12.99;100.00
53514;BME280;39768;54.148;12.174;2023-03-22T05:59:34;100599.16;;;13.16;100.00
53514;BME280;39768;54.148;12.174;2023-03-22T06:03:39;100599.22;;;13.15;100.00
53514;BME280;39768;54.148;12.174;2023-03-22T06:07:51;100590.41;;;13.10;100.00
53514;BME280;39768;54.148;12.174;2023-03-22T06:11:54;100586.69;;;13.18;100.00
53514;BME280;39768;54.148;12.174;2023-03-22T06:16:00;100584.97;;;13.14;100.00
53514;BME280;39768;54.148;12.174;2023-03-22T06:20:04;100585.38;;;13.33;100.00
53514;BME280;39768;54.148;12.174;2023-03-22T06:24:14;100581.97;;;13.59;100.00
53514;BME280;39768;54.148;12.174;2023-03-22T06:28:16;100588.75;;;13.70;100.00
53514;BME280;39768;54.148;12.174;2023-03-22T06:32:27;100586.09;;;13.70;100.00
53514;BME280;39768;54.148;12.174;2023-03-22T06:36:30;100584.09;;;13.48;100.00
53514;BME280;39768;54.148;12.174;2023-03-22T06:40:52;100584.56;;;13.62;100.00
53514;BME280;39768;54.148;12.174;2023-03-22T06:44:54;100592.16;;;13.75;100.00
53514;BME280;39768;54.148;12.174;2023-03-22T06:48:59;100586.13;;;14.28;100.00
53514;BME280;39768;54.148;12.174;2023-03-22T06:53:01;100582.16;;;13.53;100.00
53514;BME280;39768;54.148;12.174;2023-03-22T06:57:03;100571.38;;;13.87;100.00
53514;BME280;39768;54.148;12.174;2023-03-22T07:01:04;100576.53;;;13.93;100.00
53514;BME280;39768;54.148;12.174;2023-03-22T07:05:08;100575.81;;;14.16;100.00
53514;BME280;39768;54.148;12.174;2023-03-22T07:09:10;100581.81;;;14.24;100.00
53514;BME280;39768;54.148;12.174;2023-03-22T07:13:12;100579.38;;;14.16;100.00
53514;BME280;39768;54.148;12.174;2023-03-22T07:17:13;100580.38;;;14.41;100.00
53514;BME280;39768;54.148;12.174;2023-03-22T07:21:15;100582.94;;;14.44;100.00
53514;BME280;39768;54.148;12.174;2023-03-22T07:25:21;100568.94;;;14.64;100.00
53514;BME280;39768;54.148;12.174;2023-03-22T07:29:30;100566.66;;;14.54;100.00
53514;BME280;39768;54.148;12.174;2023-03-22T07:33:32;100567.94;;;14.68;100.00
53514;BME280;39768;54.148;12.174;2023-03-22T07:37:35;100570.34;;;14.50;100.00
53514;BME280;39768;54.148;12.174;2023-03-22T07:41:42;100569.09;;;14.86;100.00
53514;BME280;39768;54.148;12.174;2023-03-22T07:45:50;100558.47;;;14.58;100.00
53514;BME280;39768;54.148;12.174;2023-03-22T07:50:11;100565.03;;;14.48;100.00
53514;BME280;39768;54.148;12.174;2023-03-22T07:54:15;100569.34;;;15.30;100.00
53514;BME280;39768;54.148;12.174;2023-03-22T07:58:34;100557.00;;;15.01;100.00
53514;BME280;39768;54.148;12.174;2023-03-22T08:02:36;100567.53;;;15.30;100.00
53514;BME280;39768;54.148;12.174;2023-03-22T08:06:40;100580.22;;;15.25;100.00
53514;BME280;39768;54.148;12.174;2023-03-22T08:10:47;100567.34;;;15.84;97.08
53514;BME280;39768;54.148;12.174;2023-03-22T08:14:49;100562.69;;;15.66;97.36
53514;BME280;39768;54.148;12.174;2023-03-22T08:18:55;100567.47;;;15.32;97.57
53514;BME280;39768;54.148;12.174;2023-03-22T08:22:59;100573.19;;;15.72;97.27
53514;BME280;39768;54.148;12.174;2023-03-22T08:27:26;100566.16;;;15.92;96.94
53514;BME280;39768;54.148;12.174;2023-03-22T08:31:29;100555.97;;;15.55;97.35
53514;BME280;39768;54.148;12.174;2023-03-22T08:35:32;100560.94;;;15.88;93.95
53514;BME280;39768;54.148;12.174;2023-03-22T08:39:35;100562.72;;;15.88;94.36
53514;BME280;39768;54.148;12.174;2023-03-22T08:43:56;100532.78;;;15.30;94.72
53514;BME280;39768;54.148;12.174;2023-03-22T08:47:58;100538.69;;;15.40;94.64
53514;BME280;39768;54.148;12.174;2023-03-22T08:52:02;100539.50;;;15.17;95.02
53514;BME280;39768;54.148;12.174;2023-03-22T08:56:23;100537.31;;;15.28;95.09
53514;BME280;39768;54.148;12.174;2023-03-22T09:00:37;100535.81;;;15.44;95.44
53514;BME280;39768;54.148;12.174;2023-03-22T09:04:56;100523.66;;;15.36;94.90
53514;BME280;39768;54.148;12.174;2023-03-22T09:08:58;100515.75;;;15.33;95.36
53514;BME280;39768;54.148;12.174;2023-03-22T09:13:00;100514.53;;;15.66;93.83
53514;BME280;39768;54.148;12.174;2023-03-22T09:17:03;100513.66;;;15.66;94.56
53514;BME280;39768;54.148;12.174;2023-03-22T09:21:06;100503.44;;;15.75;93.19
53514;BME280;39768;54.148;12.174;2023-03-22T09:25:14;100500.97;;;15.71;91.94
53514;BME280;39768;54.148;12.174;2023-03-22T09:29:19;100495.69;;;15.91;94.10
53514;BME280;39768;54.148;12.174;2023-03-22T09:33:22;100485.63;;;16.41;89.19
53514;BME280;39768;54.148;12.174;2023-03-22T09:37:26;100491.66;;;16.25;89.48
53514;BME280;39768;54.148;12.174;2023-03-22T09:41:45;100484.09;;;16.34;90.24
53514;BME280;39768;54.148;12.174;2023-03-22T09:45:50;100484.72;;;15.75;89.49
53514;BME280;39768;54.148;12.174;2023-03-22T09:50:00;100480.00;;;16.04;90.17
53514;BME280;39768;54.148;12.174;2023-03-22T09:54:11;100462.25;;;16.23;90.49
53514;BME280;39768;54.148;12.174;2023-03-22T09:58:23;100449.09;;;16.81;88.27
53514;BME280;39768;54.148;12.174;2023-03-22T10:02:31;100453.41;;;16.43;93.69
53514;BME280;39768;54.148;12.174;2023-03-22T10:06:35;100436.97;;;16.30;91.25
53514;BME280;39768;54.148;12.174;2023-03-22T10:10:36;100448.41;;;16.96;88.61
53514;BME280;39768;54.148;12.174;2023-03-22T10:14:49;100442.47;;;16.89;89.42
53514;BME280;39768;54.148;12.174;2023-03-22T10:18:56;100437.38;;;15.99;90.96
53514;BME280;39768;54.148;12.174;2023-03-22T10:23:04;100448.38;;;16.55;89.17
53514;BME280;39768;54.148;12.174;2023-03-22T10:27:13;100435.25;;;16.49;89.80
53514;BME280;39768;54.148;12.174;2023-03-22T10:31:16;100430.22;;;16.42;90.92
53514;BME280;39768;54.148;12.174;2023-03-22T10:35:18;100431.25;;;17.00;86.02
53514;BME280;39768;54.148;12.174;2023-03-22T10:39:37;100428.38;;;17.05;85.64
53514;BME280;39768;54.148;12.174;2023-03-22T10:43:41;100426.09;;;16.96;85.33
53514;BME280;39768;54.148;12.174;2023-03-22T10:47:55;100424.41;;;16.93;84.90
53514;BME280;39768;54.148;12.174;2023-03-22T10:52:19;100407.59;;;17.47;80.55
53514;BME280;39768;54.148;12.174;2023-03-22T10:56:23;100400.91;;;17.56;78.51
53514;BME280;39768;54.148;12.174;2023-03-22T11:00:25;100391.06;;;17.19;80.20
53514;BME280;39768;54.148;12.174;2023-03-22T11:04:29;100386.41;;;17.41;76.94
53514;BME280;39768;54.148;12.174;2023-03-22T11:08:40;100392.56;;;17.62;73.70
53514;BME280;39768;54.148;12.174;2023-03-22T11:12:50;100395.81;;;17.12;76.64
53514;BME280;39768;54.148;12.174;2023-03-22T11:16:55;100396.69;;;17.13;76.96
53514;BME280;39768;54.148;12.174;2023-03-22T11:21:11;100391.84;;;17.40;78.41
53514;BME280;39768;54.148;12.174;2023-03-22T11:25:25;100394.53;;;17.40;75.59
53514;BME280;39768;54.148;12.174;2023-03-22T11:29:27;100385.66;;;17.94;72.21
53514;BME280;39768;54.148;12.174;2023-03-22T11:33:30;100389.84;;;18.00;74.34
53514;BME280;39768;54.148;12.174;2023-03-22T11:37:32;100388.13;;;18.16;72.22
53514;BME280;39768;54.148;12.174;2023-03-22T11:41:35;100380.28;;;18.11;72.55
53514;BME280;39768;54.148;12.174;2023-03-22T11:45:41;100368.22;;;18.20;71.82
53514;BME280;39768;54.148;12.174;2023-03-22T11:49:48;100362.94;;;18.36;73.09
53514;BME280;39768;54.148;12.174;2023-03-22T11:53:54;100363.88;;;18.35;71.56
53514;BME280;39768;54.148;12.174;2023-03-22T11:57:57;100358.97;;;18.25;72.71
53514;BME280;39768;54.148;12.174;2023-03-22T12:02:26;100354.72;;;18.21;72.00
53514;BME280;39768;54.148;12.174;2023-03-22T12:06:32;100351.38;;;17.99;75.83
53514;BME280;39768;54.148;12.174;2023-03-22T12:10:39;100359.13;;;17.69;75.15
53514;BME280;39768;54.148;12.174;2023-03-22T12:14:56;100360.88;;;18.23;71.42
53514;BME280;39768;54.148;12.174;2023-03-22T12:19:18;100358.63;;;17.61;73.28
53514;BME280;39768;54.148;12.174;2023-03-22T12:23:28;100371.75;;;17.30;72.05
53514;BME280;39768;54.148;12.174;2023-03-22T12:27:32;100356.41;;;17.33;70.06
53514;BME280;39768;54.148;12.174;2023-03-22T12:31:43;100359.97;;;17.34;71.04
53514;BME280;39768;54.148;12.174;2023-03-22T12:35:58;100363.72;;;17.30;73.39
53514;BME280;39768;54.148;12.174;2023-03-22T12:40:05;100358.19;;;17.14;70.90
53514;BME280;39768;54.148;12.174;2023-03-22T12:44:29;100371.06;;;17.64;69.70
53514;BME280;39768;54.148;12.174;2023-03-22T12:48:41;100353.06;;;17.66;67.25
53514;BME280;39768;54.148;12.174;2023-03-22T12:52:49;100352.25;;;17.45;69.82
53514;BME280;39768;54.148;12.174;2023-03-22T12:56:56;100363.34;;;17.56;69.26
53514;BME280;39768;54.148;12.174;2023-03-22T13:01:15;100361.44;;;17.95;67.14
53514;BME280;39768;54.148;12.174;2023-03-22T13:05:19;100349.34;;;18.04;65.44
53514;BME280;39768;54.148;12.174;2023-03-22T13:21:34;100347.13;;;18.29;64.25
53514;BME280;39768;54.148;12.174;2023-03-22T13:25:58;100340.88;;;18.12;63.64
53514;BME280;39768;54.148;12.174;2023-03-22T13:30:00;100335.66;;;18.43;62.08
53514;BME280;39768;54.148;12.174;2023-03-22T13:34:12;100337.41;;;18.10;62.21
53514;BME280;39768;54.148;12.174;2023-03-22T13:38:21;100331.41;;;18.05;61.00
53514;BME280;39768;54.148;12.174;2023-03-22T13:42:30;100321.56;;;17.69;62.71
53514;BME280;39768;54.148;12.174;2023-03-22T13:50:38;100330.44;;;17.88;62.07
53514;BME280;39768;54.148;12.174;2023-03-22T13:54:47;100330.34;;;17.73;61.21
53514;BME280;39768;54.148;12.174;2023-03-22T13:58:52;100321.31;;;18.10;59.98
53514;BME280;39768;54.148;12.174;2023-03-22T14:02:58;100315.56;;;17.26;64.86
53514;BME280;39768;54.148;12.174;2023-03-22T14:07:31;100307.72;;;17.41;63.80
53514;BME280;39768;54.148;12.174;2023-03-22T14:11:43;100316.44;;;17.46;63.40
53514;BME280;39768;54.148;12.174;2023-03-22T14:15:52;100320.06;;;17.81;62.29
53514;BME280;39768;54.148;12.174;2023-03-22T14:19:55;100327.09;;;17.47;62.04
53514;BME280;39768;54.148;12.174;2023-03-22T14:23:57;100319.53;;;17.74;62.54
53514;BME280;39768;54.148;12.174;2023-03-22T14:28:00;100318.56;;;17.75;61.92
53514;BME280;39768;54.148;12.174;2023-03-22T14:32:03;100328.91;;;17.66;62.08
53514;BME280;39768;54.148;12.174;2023-03-22T14:36:06;100326.34;;;17.62;62.88
53514;BME280;39768;54.148;12.174;2023-03-22T14:40:31;100322.84;;;17.79;62.89
53514;BME280;39768;54.148;12.174;2023-03-22T14:44:42;100326.16;;;17.84;64.54
53514;BME280;39768;54.148;12.174;2023-03-22T14:48:50;100322.28;;;17.54;65.18
53514;BME280;39768;54.148;12.174;2023-03-22T14:52:53;100324.50;;;17.65;64.85
53514;BME280;39768;54.148;12.174;2023-03-22T14:56:58;100324.53;;;17.63;63.97
53514;BME280;39768;54.148;12.174;2023-03-22T15:01:01;100318.56;;;17.20;64.94
53514;BME280;39768;54.148;12.174;2023-03-22T15:05:15;100328.91;;;17.28;60.70
53514;BME280;39768;54.148;12.174;2023-03-22T15:09:18;100331.38;;;17.14;56.50
53514;BME280;39768;54.148;12.174;2023-03-22T15:13:20;100345.38;;;17.20;56.10
53514;BME280;39768;54.148;12.174;2023-03-22T15:17:22;100344.13;;;17.27;56.47
53514;BME280;39768;54.148;12.174;2023-03-22T15:21:24;100343.91;;;16.95;58.85
53514;BME280;39768;54.148;12.174;2023-03-22T15:25:32;100350.53;;;17.06;58.92
53514;BME280;39768;54.148;12.174;2023-03-22T15:29:34;100376.97;;;16.54;60.91
53514;BME280;39768;54.148;12.174;2023-03-22T15:33:36;100367.66;;;16.63;63.66
53514;BME280;39768;54.148;12.174;2023-03-22T15:37:38;100336.13;;;16.70;67.81
53514;BME280;39768;54.148;12.174;2023-03-22T15:41:41;100350.16;;;16.54;72.69
53514;BME280;39768;54.148;12.174;2023-03-22T15:50:10;100353.50;;;16.19;72.47
53514;BME280;39768;54.148;12.174;2023-03-22T15:54:14;100366.31;;;16.33;73.20
53514;BME280;39768;54.148;12.174;2023-03-22T15:58:25;100364.38;;;16.56;72.14
53514;BME280;39768;54.148;12.174;2023-03-22T16:02:31;100364.38;;;16.36;72.66
53514;BME280;39768;54.148;12.174;2023-03-22T16:06:32;100366.91;;;16.39;74.20
53514;BME280;39768;54.148;12.174;2023-03-22T16:10:33;100359.69;;;16.41;72.67
53514;BME280;39768;54.148;12.174;2023-03-22T16:14:35;100370.00;;;16.50;71.68
53514;BME280;39768;54.148;12.174;2023-03-22T16:18:35;100366.19;;;16.15;74.03
53514;BME280;39768;54.148;12.174;2023-03-22T16:22:36;100363.09;;;16.25;72.07
53514;BME280;39768;54.148;12.174;2023-03-22T16:26:37;100372.34;;;16.58;68.99
53514;BME280;39768;54.148;12.174;2023-03-22T16:30:40;100371.34;;;16.40;71.33
53514;BME280;39768;54.148;12.174;2023-03-22T16:34:41;100367.59;;;16.65;69.82
53514;BME280;39768;54.148;12.174;2023-03-22T16:38:42;100375.97;;;16.57;68.94
53514;BME280;39768;54.148;12.174;2023-03-22T16:42:43;100380.63;;;16.11;72.58
53514;BME280;39768;54.148;12.174;2023-03-22T16:46:44;100376.91;;;16.36;71.63
53514;BME280;39768;54.148;12.174;2023-03-22T16:50:45;100373.66;;;16.07;72.90
53514;BME280;39768;54.148;12.174;2023-03-22T16:54:49;100375.28;;;16.11;71.13
53514;BME280;39768;54.148;12.174;2023-03-22T16:58:50;100382.69;;;16.47;70.33
53514;BME280;39768;54.148;12.174;2023-03-22T17:02:52;100390.34;;;16.34;70.18
53514;BME280;39768;54.148;12.174;2023-03-22T17:06:53;100401.22;;;16.31;69.66
53514;BME280;39768;54.148;12.174;2023-03-22T17:10:53;100393.91;;;16.14;71.86
53514;BME280;39768;54.148;12.174;2023-03-22T17:14:55;100394.78;;;16.35;71.51
53514;BME280;39768;54.148;12.174;2023-03-22T17:18:56;100386.22;;;15.85;72.48
53514;BME280;39768;54.148;12.174;2023-03-22T17:22:58;100402.88;;;16.13;70.61
53514;BME280;39768;54.148;12.174;2023-03-22T17:26:59;100398.84;;;15.81;69.12
53514;BME280;39768;54.148;12.174;2023-03-22T17:31:00;100403.16;;;16.28;68.32
53514;BME280;39768;54.148;12.174;2023-03-22T17:35:00;100388.88;;;16.27;66.16
53514;BME280;39768;54.148;12.174;2023-03-22T17:39:01;100388.97;;;16.04;67.48
53514;BME280;39768;54.148;12.174;2023-03-22T17:43:02;100394.66;;;15.96;67.17
53514;BME280;39768;54.148;12.174;2023-03-22T17:47:03;100392.28;;;15.88;67.03
53514;BME280;39768;54.148;12.174;2023-03-22T17:51:04;100398.16;;;16.18;65.57
53514;BME280;39768;54.148;12.174;2023-03-22T17:55:05;100396.94;;;16.05;65.90
53514;BME280;39768;54.148;12.174;2023-03-22T17:59:06;100403.34;;;16.23;65.15
53514;BME280;39768;54.148;12.174;2023-03-22T18:03:06;100391.91;;;15.98;66.91
53514;BME280;39768;54.148;12.174;2023-03-22T18:07:07;100387.09;;;15.85;67.36
53514;BME280;39768;54.148;12.174;2023-03-22T18:11:09;100381.09;;;15.79;68.51
53514;BME280;39768;54.148;12.174;2023-03-22T18:15:13;100381.22;;;15.76;67.35
53514;BME280;39768;54.148;12.174;2023-03-22T18:19:15;100380.91;;;15.83;68.15
53514;BME280;39768;54.148;12.174;2023-03-22T18:23:15;100387.88;;;15.88;68.25
53514;BME280;39768;54.148;12.174;2023-03-22T18:27:16;100388.50;;;15.94;67.29
53514;BME280;39768;54.148;12.174;2023-03-22T18:31:16;100387.09;;;15.85;67.43
53514;BME280;39768;54.148;12.174;2023-03-22T18:35:17;100390.00;;;15.79;69.12
53514;BME280;39768;54.148;12.174;2023-03-22T18:39:18;100387.25;;;15.81;69.54
53514;BME280;39768;54.148;12.174;2023-03-22T18:43:19;100396.84;;;15.65;69.54
53514;BME280;39768;54.148;12.174;2023-03-22T18:47:19;100399.56;;;15.63;70.17
53514;BME280;39768;54.148;12.174;2023-03-22T18:51:20;100394.38;;;15.59;70.04
53514;BME280;39768;54.148;12.174;2023-03-22T18:55:20;100383.41;;;15.66;71.41
53514;BME280;39768;54.148;12.174;2023-03-22T18:59:21;100378.19;;;15.40;71.45
53514;BME280;39768;54.148;12.174;2023-03-22T19:03:22;100376.72;;;15.55;70.46
53514;BME280;39768;54.148;12.174;2023-03-22T19:07:22;100370.13;;;15.63;72.63
53514;BME280;39768;54.148;12.174;2023-03-22T19:11:23;100355.97;;;15.38;72.67
53514;BME280;39768;54.148;12.174;2023-03-22T19:15:23;100353.97;;;15.66;71.16
53514;BME280;39768;54.148;12.174;2023-03-22T19:19:24;100358.88;;;15.77;71.12
53514;BME280;39768;54.148;12.174;2023-03-22T19:23:25;100357.94;;;15.78;71.29
53514;BME280;39768;54.148;12.174;2023-03-22T19:27:26;100353.84;;;15.46;74.95
53514;BME280;39768;54.148;12.174;2023-03-22T19:31:27;100345.44;;;15.11;74.75
53514;BME280;39768;54.148;12.174;2023-03-22T19:35:28;100353.53;;;15.55;73.91
53514;BME280;39768;54.148;12.174;2023-03-22T19:39:29;100353.78;;;15.26;76.14
53514;BME280;39768;54.148;12.174;2023-03-22T19:43:29;100343.25;;;15.66;72.67
53514;BME280;39768;54.148;12.174;2023-03-22T19:47:29;100334.88;;;15.30;75.31
53514;BME280;39768;54.148;12.174;2023-03-22T19:51:30;100345.88;;;15.23;76.36
53514;BME280;39768;54.148;12.174;2023-03-22T19:55:30;100351.94;;;15.04;77.38
53514;BME280;39768;54.148;12.174;2023-03-22T19:59:31;100365.75;;;15.39;77.08
53514;BME280;39768;54.148;12.174;2023-03-22T20:03:32;100369.94;;;15.23;77.33
53514;BME280;39768;54.148;12.174;2023-03-22T20:07:32;100374.59;;;15.17;80.08
53514;BME280;39768;54.148;12.174;2023-03-22T20:11:33;100365.97;;;15.33;77.88
53514;BME280;39768;54.148;12.174;2023-03-22T20:15:34;100369.59;;;15.08;80.59
53514;BME280;39768;54.148;12.174;2023-03-22T20:19:34;100369.72;;;14.82;81.85
53514;BME280;39768;54.148;12.174;2023-03-22T20:23:35;100372.03;;;14.91;80.55
53514;BME280;39768;54.148;12.174;2023-03-22T20:27:36;100369.47;;;14.88;81.95
53514;BME280;39768;54.148;12.174;2023-03-22T20:31:38;100376.81;;;15.06;82.27
53514;BME280;39768;54.148;12.174;2023-03-22T20:35:38;100376.50;;;15.14;80.89
53514;BME280;39768;54.148;12.174;2023-03-22T20:39:39;100374.84;;;15.11;81.69
53514;BME280;39768;54.148;12.174;2023-03-22T20:43:44;100389.22;;;15.31;79.15
53514;BME280;39768;54.148;12.174;2023-03-22T20:47:45;100375.75;;;15.34;79.31
53514;BME280;39768;54.148;12.174;2023-03-22T20:51:45;100379.13;;;14.92;81.24
53514;BME280;39768;54.148;12.174;2023-03-22T20:55:47;100377.84;;;15.26;81.29
53514;BME280;39768;54.148;12.174;2023-03-22T20:59:48;100364.47;;;15.26;81.18
53514;BME280;39768;54.148;12.174;2023-03-22T21:03:48;100354.38;;;15.10;81.37
53514;BME280;39768;54.148;12.174;2023-03-22T21:07:50;100357.97;;;14.86;80.80
53514;BME280;39768;54.148;12.174;2023-03-22T21:11:50;100348.97;;;15.12;80.24
53514;BME280;39768;54.148;12.174;2023-03-22T21:15:51;100340.38;;;15.04;81.92
53514;BME280;39768;54.148;12.174;2023-03-22T21:19:51;100338.91;;;14.72;83.82
53514;BME280;39768;54.148;12.174;2023-03-22T21:23:52;100342.22;;;15.25;81.45
53514;BME280;39768;54.148;12.174;2023-03-22T21:27:52;100335.13;;;15.01;81.90
53514;BME280;39768;54.148;12.174;2023-03-22T21:31:53;100332.00;;;15.13;80.35
53514;BME280;39768;54.148;12.174;2023-03-22T21:35:55;100320.50;;;14.88;83.58